Time;durP1;ratioP1;P1;durP2;ratioP2;P2;SDS_P1;SDS_P2;PMS_P1;PMS_P2;Temp;Humidity;BMP_temperature;BMP_pressure;BME280_temperature;BME280_humidity;BME280_pressure;Samples;Min_cycle;Max_cycle;Signal;HPM_P1;HPM_P2
2023/04/07 00:00:47;;;;;;;38.92;21.23;;;;;;;7.43;100.00;101326.84;5040552;28;20028;-63
2023/04/07 00:03:12;;;;;;;41.58;21.52;;;;;;;7.44;100.00;101331.19;5041181;28;20065;-64
2023/04/07 00:05:38;;;;;;;40.13;21.45;;;;;;;7.45;100.00;101327.59;5043775;28;20396;-63
2023/04/07 00:08:03;;;;;;;37.65;20.65;;;;;;;7.50;100.00;101330.69;5045371;28;20491;-63
2023/04/07 00:10:29;;;;;;;36.75;20.55;;;;;;;7.53;100.00;101330.41;5043297;28;20036;-63
2023/04/07 00:12:54;;;;;;;39.58;21.30;;;;;;;7.44;100.00;101321.47;5043916;28;20032;-63
2023/04/07 00:15:20;;;;;;;38.97;21.65;;;;;;;7.42;100.00;101327.81;5044979;28;20098;-63
2023/04/07 00:17:45;;;;;;;37.28;21.40;;;;;;;7.38;100.00;101328.09;5042605;28;20028;-64
2023/04/07 00:20:11;;;;;;;38.10;22.33;;;;;;;7.37;100.00;101331.72;5044435;28;20040;-63
2023/04/07 00:22:36;;;;;;;36.13;21.65;;;;;;;7.35;100.00;101328.34;5043170;28;20514;-63
2023/04/07 00:25:01;;;;;;;41.05;22.50;;;;;;;7.36;100.00;101332.66;5044163;28;20506;-64
2023/04/07 00:27:27;;;;;;;41.40;22.02;;;;;;;7.39;100.00;101335.03;5044112;28;20408;-63
2023/04/07 00:29:54;;;;;;;39.83;21.67;;;;;;;7.42;100.00;101327.81;5044587;28;20032;-63
2023/04/07 00:32:20;;;;;;;37.92;21.95;;;;;;;7.39;100.00;101332.41;5044485;28;20040;-63
2023/04/07 00:34:45;;;;;;;39.63;22.08;;;;;;;7.39;100.00;101339.47;5043049;28;20033;-63
2023/04/07 00:37:10;;;;;;;39.30;22.25;;;;;;;7.34;100.00;101336.38;5042038;28;20416;-63
2023/04/07 00:39:36;;;;;;;40.10;23.00;;;;;;;7.38;100.00;101336.00;5043222;28;20090;-63
2023/04/07 00:42:03;;;;;;;40.08;22.63;;;;;;;7.35;100.00;101333.63;5042654;28;20064;-63
2023/04/07 00:44:28;;;;;;;40.90;23.08;;;;;;;7.35;100.00;101330.16;5047518;28;20064;-63
2023/04/07 00:46:54;;;;;;;41.45;22.67;;;;;;;7.35;100.00;101327.53;5043506;28;20088;-63
2023/04/07 00:49:19;;;;;;;38.60;22.38;;;;;;;7.38;100.00;101327.25;5043195;28;20178;-63
2023/04/07 00:51:45;;;;;;;35.13;21.67;;;;;;;7.41;100.00;101327.00;5042913;28;20041;-63
2023/04/07 00:54:11;;;;;;;36.22;22.75;;;;;;;7.31;100.00;101326.94;5048504;28;20473;-63
2023/04/07 00:56:36;;;;;;;37.30;23.33;;;;;;;7.28;100.00;101329.81;5043749;28;20044;-63
2023/04/07 00:59:04;;;;;;;38.00;21.77;;;;;;;7.23;100.00;101329.38;5044015;28;20090;-64
2023/04/07 01:01:36;;;;;;;36.33;21.35;;;;;;;7.30;100.00;101319.97;5041666;28;20037;-63
2023/04/07 01:04:07;;;;;;;34.63;21.13;;;;;;;7.31;100.00;101337.50;5043627;28;20036;-63
2023/04/07 01:06:37;;;;;;;34.65;22.00;;;;;;;7.30;100.00;101341.06;5040662;28;20048;-63
2023/04/07 01:09:16;;;;;;;36.95;21.90;;;;;;;7.31;100.00;101337.50;5034129;28;20040;-63
2023/04/07 01:11:47;;;;;;;40.10;23.30;;;;;;;7.23;100.00;101327.56;5040960;28;20036;-63
2023/04/07 01:14:16;;;;;;;36.10;23.60;;;;;;;7.25;100.00;101337.97;5043832;28;20051;-63
2023/04/07 01:16:47;;;;;;;40.55;23.00;;;;;;;7.25;100.00;101343.25;5043024;28;20029;-64
2023/04/07 01:19:34;;;;;;;41.95;24.30;;;;;;;7.24;100.00;101341.59;5043392;28;20110;-63
2023/04/07 01:22:03;;;;;;;40.95;24.00;;;;;;;7.22;100.00;101338.25;5039167;28;20032;-63
2023/04/07 01:24:49;;;;;;;37.97;23.75;;;;;;;7.21;100.00;101336.56;5043137;28;20060;-63
2023/04/07 01:27:53;;;;;;;38.55;24.42;;;;;;;7.30;100.00;101341.06;5041143;28;20037;-63
2023/04/07 01:30:21;;;;;;;40.10;24.13;;;;;;;7.21;100.00;101336.56;5028849;28;20436;-64
2023/04/07 01:32:50;;;;;;;35.33;22.52;;;;;;;7.27;100.00;101346.63;5041079;28;20449;-63
2023/04/07 01:35:17;;;;;;;34.72;22.25;;;;;;;7.21;100.00;101347.13;5043759;28;20603;-63
2023/04/07 01:37:47;;;;;;;39.80;22.80;;;;;;;7.19;100.00;101349.88;5041608;28;20036;-63
2023/04/07 01:40:14;;;;;;;35.90;19.42;;;;;;;7.29;100.00;101344.69;5036970;28;20048;-64
2023/04/07 01:42:41;;;;;;;33.55;18.60;;;;;;;7.23;100.00;101347.81;5041999;28;20029;-63
2023/04/07 01:45:08;;;;;;;34.83;18.65;;;;;;;7.29;100.00;101346.50;5041157;28;20076;-63
2023/04/07 01:47:36;;;;;;;28.13;16.00;;;;;;;7.23;100.00;101345.19;5043130;28;20037;-63
2023/04/07 01:50:05;;;;;;;27.83;14.18;;;;;;;7.20;100.00;101346.28;5041953;28;20029;-63
2023/04/07 01:52:35;;;;;;;26.35;14.70;;;;;;;7.25;100.00;101359.94;5042561;28;20770;-64
2023/04/07 01:55:01;;;;;;;25.92;13.55;;;;;;;7.18;100.00;101355.28;5039588;28;20067;-63
2023/04/07 01:57:27;;;;;;;26.88;13.40;;;;;;;7.15;100.00;101369.56;5042069;28;20557;-63
2023/04/07 01:59:52;;;;;;;22.83;12.18;;;;;;;7.10;100.00;101359.38;5035820;28;20029;-63
2023/04/07 02:02:18;;;;;;;21.85;12.13;;;;;;;7.06;100.00;101371.16;5032534;28;20063;-63
2023/04/07 02:05:01;;;;;;;24.88;11.75;;;;;;;7.16;100.00;101370.41;5038846;28;20133;-63
2023/04/07 02:07:38;;;;;;;22.25;11.20;;;;;;;7.04;100.00;101373.06;5034943;28;20029;-63
2023/04/07 02:10:07;;;;;;;19.30;10.95;;;;;;;6.99;100.00;101369.97;5043508;28;20033;-63
2023/04/07 02:12:34;;;;;;;21.27;10.40;;;;;;;6.97;100.00;101372.72;5039769;28;20041;-63
2023/04/07 02:15:00;;;;;;;19.63;11.00;;;;;;;7.00;100.00;101371.66;5040924;28;20389;-63
2023/04/07 02:17:28;;;;;;;19.45;9.93;;;;;;;7.04;100.00;101373.06;5039262;28;20037;-64
2023/04/07 02:19:56;;;;;;;21.75;9.93;;;;;;;6.96;100.00;101364.97;5036154;28;20649;-63
2023/04/07 02:22:22;;;;;;;18.92;10.25;;;;;;;7.03;100.00;101374.03;5037652;28;20038;-63
2023/04/07 02:24:47;;;;;;;19.40;9.88;;;;;;;7.05;100.00;101372.09;5039068;28;20033;-63
2023/04/07 02:27:13;;;;;;;19.05;9.95;;;;;;;7.03;100.00;101378.47;5041841;28;20903;-64
2023/04/07 02:29:38;;;;;;;20.63;9.23;;;;;;;7.03;100.00;101366.13;5042133;28;20099;-63
2023/04/07 02:32:05;;;;;;;17.48;9.20;;;;;;;7.04;100.00;101367.81;5045427;28;20115;-63
2023/04/07 02:34:30;;;;;;;21.13;9.15;;;;;;;7.06;100.00;101359.78;5045275;28;20036;-63
2023/04/07 02:36:55;;;;;;;20.30;9.30;;;;;;;7.08;100.00;101361.31;5045653;28;20025;-63
2023/04/07 02:39:21;;;;;;;18.13;8.52;;;;;;;7.01;100.00;101368.06;5045769;28;20586;-63
2023/04/07 02:41:46;;;;;;;21.25;11.90;;;;;;;7.06;100.00;101363.22;5046289;28;20029;-63
2023/04/07 02:44:11;;;;;;;19.80;11.90;;;;;;;7.05;100.00;101364.19;5043910;28;20393;-62
2023/04/07 02:46:36;;;;;;;21.60;12.25;;;;;;;7.01;100.00;101365.44;5039933;28;20067;-63
2023/04/07 02:49:02;;;;;;;22.98;13.02;;;;;;;7.07;100.00;101367.56;5038877;28;20069;-63
2023/04/07 02:51:27;;;;;;;23.13;13.32;;;;;;;7.03;100.00;101360.88;5044498;28;20775;-63
2023/04/07 02:53:53;;;;;;;25.65;13.88;;;;;;;7.08;100.00;101365.75;5045998;28;20052;-63
2023/04/07 02:56:18;;;;;;;25.17;14.10;;;;;;;6.98;100.00;101363.88;5046940;28;20060;-63
2023/04/07 02:58:43;;;;;;;22.75;13.95;;;;;;;6.98;100.00;101361.25;5047162;28;20045;-63
2023/04/07 03:01:09;;;;;;;26.67;14.68;;;;;;;6.98;100.00;101365.66;5045328;28;20484;-63
2023/04/07 03:03:34;;;;;;;28.13;14.88;;;;;;;6.98;100.00;101368.31;5035039;28;20072;-63
2023/04/07 03:06:00;;;;;;;24.98;14.52;;;;;;;6.98;100.00;101363.03;5043793;28;20045;-63
2023/04/07 03:08:26;;;;;;;27.08;15.43;;;;;;;6.96;100.00;101370.25;5045181;28;20079;-63
2023/04/07 03:10:51;;;;;;;26.35;14.65;;;;;;;6.93;100.00;101366.06;5039735;28;20918;-63
2023/04/07 03:13:18;;;;;;;25.67;13.98;;;;;;;6.92;100.00;101368.81;5044545;28;20546;-62
2023/04/07 03:15:43;;;;;;;25.27;13.80;;;;;;;6.92;100.00;101368.81;5045960;28;20040;-63
2023/04/07 03:18:10;;;;;;;26.15;14.77;;;;;;;6.89;100.00;101369.03;5043282;28;20480;-63
2023/04/07 03:20:36;;;;;;;26.90;14.88;;;;;;;6.88;100.00;101368.22;5039901;28;20508;-64
2023/04/07 03:23:01;;;;;;;28.45;14.68;;;;;;;6.90;100.00;101370.75;5038248;28;20036;-64
2023/04/07 03:25:27;;;;;;;27.90;15.23;;;;;;;6.89;100.00;101369.03;5045630;28;20381;-63
2023/04/07 03:27:52;;;;;;;28.33;15.38;;;;;;;6.88;100.00;101373.50;5045089;28;20078;-63
2023/04/07 03:30:17;;;;;;;30.35;15.57;;;;;;;6.89;100.00;101374.31;5044427;28;20116;-63
2023/04/07 03:32:43;;;;;;;27.65;15.05;;;;;;;6.88;100.00;101372.63;5048450;28;20481;-63
2023/04/07 03:35:09;;;;;;;27.70;15.20;;;;;;;6.86;100.00;101370.97;5045780;28;20489;-63
2023/04/07 03:37:34;;;;;;;26.48;14.50;;;;;;;6.91;100.00;101372.41;5044459;28;20400;-63
2023/04/07 03:40:00;;;;;;;25.30;13.93;;;;;;;6.90;100.00;101373.38;5044746;28;20055;-63
2023/04/07 03:42:25;;;;;;;26.10;13.95;;;;;;;6.90;100.00;101376.00;5044365;28;20032;-64
2023/04/07 03:44:51;;;;;;;27.95;14.25;;;;;;;6.91;100.00;101372.41;5040079;28;20435;-63
2023/04/07 03:47:16;;;;;;;27.42;14.30;;;;;;;6.88;100.00;101370.00;5041906;28;20037;-63
2023/04/07 03:49:41;;;;;;;29.13;14.25;;;;;;;6.86;100.00;101378.06;5043126;28;20045;-64
2023/04/07 03:52:07;;;;;;;24.77;13.68;;;;;;;6.85;100.00;101368.44;5043333;28;20132;-63
2023/04/07 03:54:34;;;;;;;28.27;14.85;;;;;;;6.81;100.00;101373.13;5043319;28;20460;-63
2023/04/07 03:57:01;;;;;;;29.23;14.93;;;;;;;6.78;100.00;101378.66;5045432;28;20639;-63
2023/04/07 03:59:28;;;;;;;30.52;15.93;;;;;;;6.76;100.00;101370.03;5045207;28;20052;-63
2023/04/07 04:01:53;;;;;;;27.00;15.20;;;;;;;6.76;100.00;101375.31;5040066;28;20059;-63
2023/04/07 04:04:25;;;;;;;31.80;15.00;;;;;;;6.83;100.00;101387.06;5039975;28;20428;-63
2023/04/07 04:06:51;;;;;;;28.02;15.20;;;;;;;6.75;100.00;101384.16;5037913;28;20033;-63
2023/04/07 04:09:18;;;;;;;24.27;14.23;;;;;;;6.79;100.00;101379.50;5035272;28;20033;-63
2023/04/07 04:11:43;;;;;;;32.50;14.27;;;;;;;6.78;100.00;101377.81;5042959;28;20504;-65
2023/04/07 04:14:08;;;;;;;28.20;14.45;;;;;;;6.81;100.00;101378.41;5046716;28;20047;-63
2023/04/07 04:16:36;;;;;;;29.00;15.55;;;;;;;6.73;100.00;101368.47;5042788;28;20120;-64
2023/04/07 04:19:02;;;;;;;32.38;15.90;;;;;;;6.71;100.00;101372.22;5044734;28;20037;-63
2023/04/07 04:21:27;;;;;;;27.17;14.05;;;;;;;6.72;100.00;101373.91;5043660;28;20409;-64
2023/04/07 04:23:52;;;;;;;27.70;14.50;;;;;;;6.68;100.00;101377.72;5042162;28;20052;-64
2023/04/07 04:26:17;;;;;;;30.88;14.50;;;;;;;6.67;100.00;101373.41;5041978;28;20036;-64
2023/04/07 04:28:43;;;;;;;33.42;16.80;;;;;;;6.61;100.00;101371.28;5044476;28;20459;-63
2023/04/07 04:31:08;;;;;;;26.30;13.50;;;;;;;6.63;100.00;101369.34;5042213;28;20496;-64
2023/04/07 04:33:33;;;;;;;29.73;14.27;;;;;;;6.61;100.00;101377.38;5043340;28;20078;-64
2023/04/07 04:35:59;;;;;;;33.75;14.60;;;;;;;6.57;100.00;101376.78;5040536;28;20051;-64
2023/04/07 04:38:24;;;;;;;28.85;13.75;;;;;;;6.57;100.00;101381.22;5043129;28;20029;-63
2023/04/07 04:40:49;;;;;;;33.10;13.73;;;;;;;6.55;100.00;101383.97;5042531;28;20499;-63
2023/04/07 04:43:15;;;;;;;27.92;14.05;;;;;;;6.55;100.00;101389.25;5035994;28;20461;-64
2023/04/07 04:45:40;;;;;;;30.17;13.95;;;;;;;6.56;100.00;101396.19;5038846;28;20049;-63
2023/04/07 04:48:05;;;;;;;30.17;13.85;;;;;;;6.59;100.00;101395.94;5038047;28;20060;-64
2023/04/07 04:50:31;;;;;;;29.60;14.00;;;;;;;6.56;100.00;101395.38;5039866;28;20052;-64
2023/04/07 04:52:56;;;;;;;27.70;13.73;;;;;;;6.55;100.00;101401.56;5036943;28;20056;-63
2023/04/07 04:55:22;;;;;;;29.98;13.30;;;;;;;6.51;100.00;101403.59;5037209;28;20116;-64
2023/04/07 04:57:47;;;;;;;34.17;14.27;;;;;;;6.50;100.00;101406.38;5036582;28;20056;-61
2023/04/07 05:00:13;;;;;;;28.20;14.10;;;;;;;6.48;100.00;101414.41;5038603;28;20071;-61
2023/04/07 05:02:38;;;;;;;31.15;15.10;;;;;;;6.48;100.00;101411.78;5035130;28;20045;-61
2023/04/07 05:05:04;;;;;;;33.47;15.05;;;;;;;6.49;100.00;101412.59;5038719;28;20075;-61
2023/04/07 05:07:29;;;;;;;27.92;14.40;;;;;;;6.46;100.00;101422.41;5035391;28;20033;-61
2023/04/07 05:09:54;;;;;;;29.33;14.80;;;;;;;6.49;100.00;101425.75;5032689;28;20039;-60
2023/04/07 05:12:20;;;;;;;30.50;15.25;;;;;;;6.50;100.00;101428.28;5033958;28;20388;-60
2023/04/07 05:14:45;;;;;;;31.30;14.88;;;;;;;6.52;100.00;101425.53;5035966;28;20033;-61
2023/04/07 05:17:11;;;;;;;35.40;14.95;;;;;;;6.52;100.00;101426.34;5036017;28;20055;-63
2023/04/07 05:19:36;;;;;;;30.52;14.50;;;;;;;6.56;100.00;101427.81;5038223;28;20685;-63
2023/04/07 05:22:01;;;;;;;31.88;13.80;;;;;;;6.55;100.00;101431.41;5036505;28;20028;-63
2023/04/07 05:24:28;;;;;;;31.48;14.60;;;;;;;6.59;100.00;101432.00;5039737;28;20064;-63
2023/04/07 05:26:53;;;;;;;30.23;14.02;;;;;;;6.59;100.00;101427.56;5033273;28;20064;-62
2023/04/07 05:29:19;;;;;;;31.20;14.35;;;;;;;6.55;100.00;101436.69;5037276;28;20036;-64
2023/04/07 05:31:44;;;;;;;32.00;14.63;;;;;;;6.54;100.00;101439.41;5036117;28;20068;-62
2023/04/07 05:34:10;;;;;;;34.50;14.93;;;;;;;6.58;100.00;101436.41;5037335;28;20060;-63
2023/04/07 05:36:35;;;;;;;31.80;14.95;;;;;;;6.53;100.00;101449.13;5038040;28;20067;-63
2023/04/07 05:39:00;;;;;;;34.92;14.70;;;;;;;6.57;100.00;101450.56;5035233;28;20108;-63
2023/04/07 05:41:26;;;;;;;33.05;16.33;;;;;;;6.54;100.00;101445.53;5039956;28;20400;-63
2023/04/07 05:43:52;;;;;;;33.42;16.23;;;;;;;6.54;100.00;101449.97;5043927;28;20481;-63
2023/04/07 05:46:17;;;;;;;31.83;15.95;;;;;;;6.56;100.00;101448.06;5042989;28;20441;-63
2023/04/07 05:48:42;;;;;;;36.55;16.02;;;;;;;6.55;100.00;101447.22;5040765;28;20107;-64
2023/04/07 05:51:07;;;;;;;39.15;16.92;;;;;;;6.56;100.00;101443.63;5036930;28;20603;-63
2023/04/07 05:53:33;;;;;;;37.75;16.77;;;;;;;6.56;100.00;101448.06;5042964;28;20034;-64
2023/04/07 05:55:58;;;;;;;34.88;17.00;;;;;;;6.57;100.00;101444.47;5040490;28;20033;-64
2023/04/07 05:58:23;;;;;;;37.15;17.35;;;;;;;6.58;100.00;101446.13;5041937;28;20033;-63
2023/04/07 06:00:49;;;;;;;35.28;17.48;;;;;;;6.59;100.00;101443.38;5038736;28;20087;-60
2023/04/07 06:03:14;;;;;;;37.53;17.77;;;;;;;6.59;100.00;101443.38;5038997;28;20053;-61
2023/04/07 06:05:42;;;;;;;37.72;18.42;;;;;;;6.62;100.00;101446.72;5039843;28;20043;-61
2023/04/07 06:08:08;;;;;;;37.22;18.45;;;;;;;6.61;100.00;101450.34;5033351;28;20033;-61
2023/04/07 06:10:33;;;;;;;37.45;18.92;;;;;;;6.63;100.00;101461.59;5044950;28;20032;-61
2023/04/07 06:12:59;;;;;;;38.65;18.33;;;;;;;6.65;100.00;101457.06;5044956;28;20056;-61
2023/04/07 06:15:24;;;;;;;38.03;19.80;;;;;;;6.67;100.00;101460.41;5040778;28;20050;-60
2023/04/07 06:17:49;;;;;;;39.65;19.25;;;;;;;6.68;100.00;101469.97;5040663;28;20493;-62
2023/04/07 06:20:15;;;;;;;37.65;19.55;;;;;;;6.69;100.00;101469.84;5041247;28;20039;-62
2023/04/07 06:22:40;;;;;;;39.95;21.58;;;;;;;6.67;100.00;101465.66;5045463;28;20752;-62
2023/04/07 06:25:06;;;;;;;42.50;21.13;;;;;;;6.69;100.00;101464.59;5046452;28;20033;-62
2023/04/07 06:27:32;;;;;;;42.15;21.77;;;;;;;6.69;100.00;101469.00;5046594;28;20116;-62
2023/04/07 06:29:57;;;;;;;40.20;21.48;;;;;;;6.71;100.00;101472.38;5045120;28;20032;-63
2023/04/07 06:32:22;;;;;;;42.33;21.75;;;;;;;6.72;100.00;101479.31;5041354;28;20064;-61
2023/04/07 06:34:47;;;;;;;42.97;22.00;;;;;;;6.72;100.00;101474.06;5043222;28;20060;-61
2023/04/07 06:37:13;;;;;;;42.13;22.33;;;;;;;6.76;100.00;101480.75;5044775;28;20033;-61
2023/04/07 06:39:38;;;;;;;37.28;20.83;;;;;;;6.79;100.00;101475.25;5047012;28;20411;-61
2023/04/07 06:42:03;;;;;;;36.83;21.50;;;;;;;6.83;100.00;101481.97;5043140;28;20112;-61
2023/04/07 06:44:29;;;;;;;42.72;21.77;;;;;;;6.84;100.00;101481.00;5037586;28;20155;-61
2023/04/07 06:46:54;;;;;;;39.65;20.73;;;;;;;6.86;100.00;101486.97;5044041;28;20118;-61
2023/04/07 06:49:20;;;;;;;37.60;22.20;;;;;;;6.89;100.00;101490.31;5042513;28;20472;-60
2023/04/07 06:51:45;;;;;;;38.38;21.10;;;;;;;6.90;100.00;101492.03;5037440;28;20532;-62
2023/04/07 06:54:12;;;;;;;46.22;22.70;;;;;;;6.98;100.00;101489.59;5038378;28;20032;-62
2023/04/07 06:56:38;;;;;;;36.35;19.67;;;;;;;7.05;100.00;101488.16;5042758;28;20476;-65
2023/04/07 06:59:04;;;;;;;33.53;18.50;;;;;;;7.09;100.00;101492.22;5040893;28;20025;-64
2023/04/07 07:01:29;;;;;;;33.50;19.33;;;;;;;7.11;100.00;101498.22;5044454;28;20800;-64
2023/04/07 07:03:54;;;;;;;33.13;17.88;;;;;;;7.13;100.00;101501.59;5036344;28;20026;-65
2023/04/07 07:06:20;;;;;;;32.17;17.38;;;;;;;7.17;100.00;101503.97;5043560;28;20036;-62
2023/04/07 07:08:45;;;;;;;29.33;15.70;;;;;;;7.17;100.00;101499.53;5044911;28;20040;-64
2023/04/07 07:11:10;;;;;;;29.42;15.50;;;;;;;7.18;100.00;101500.34;5043774;28;20045;-63
2023/04/07 07:13:36;;;;;;;27.98;13.98;;;;;;;7.24;100.00;101499.88;5043971;28;20059;-64
2023/04/07 07:16:01;;;;;;;26.33;13.18;;;;;;;7.28;100.00;101501.31;5042068;28;20033;-63
2023/04/07 07:18:26;;;;;;;25.38;13.48;;;;;;;7.33;100.00;101508.84;5044982;28;20036;-64
2023/04/07 07:20:52;;;;;;;25.85;14.15;;;;;;;7.38;100.00;101506.69;5046535;28;20040;-66
2023/04/07 07:23:17;;;;;;;28.20;14.32;;;;;;;7.46;100.00;101503.41;5046145;28;20052;-64
2023/04/07 07:25:42;;;;;;;26.20;13.32;;;;;;;7.56;100.00;101514.91;5045470;28;20435;-63
2023/04/07 07:28:08;;;;;;;28.73;12.63;;;;;;;7.57;100.00;101511.31;5043076;28;20044;-63
2023/04/07 07:30:33;;;;;;;26.25;12.32;;;;;;;7.54;100.00;101500.97;5045223;28;20047;-63
2023/04/07 07:32:59;;;;;;;25.90;12.35;;;;;;;7.63;100.00;101510.81;5046140;28;20033;-63
2023/04/07 07:35:24;;;;;;;20.23;9.48;;;;;;;7.76;100.00;101517.72;5046436;28;20073;-63
2023/04/07 07:37:50;;;;;;;21.45;9.73;;;;;;;7.72;100.00;101516.28;5043515;28;20040;-63
2023/04/07 07:40:16;;;;;;;19.38;8.98;;;;;;;7.81;100.00;101523.47;5044881;28;20128;-63
2023/04/07 07:42:42;;;;;;;17.70;9.48;;;;;;;7.84;100.00;101528.47;5043068;28;20106;-67
2023/04/07 07:45:07;;;;;;;21.75;9.40;;;;;;;7.74;100.00;101532.84;5044129;28;20076;-64
2023/04/07 07:47:36;;;;;;;16.08;8.02;;;;;;;7.81;100.00;101528.75;5044182;28;20572;-64
2023/04/07 07:50:01;;;;;;;18.40;8.07;;;;;;;7.82;100.00;101540.97;5044999;28;20083;-66
2023/04/07 07:52:27;;;;;;;19.98;9.07;;;;;;;7.77;100.00;101540.50;5043286;28;20999;-65
2023/04/07 07:54:52;;;;;;;19.10;8.57;;;;;;;7.79;100.00;101533.28;5044824;28;20036;-63
2023/04/07 07:57:17;;;;;;;15.68;8.20;;;;;;;7.75;100.00;101540.63;5044188;28;20037;-66
2023/04/07 07:59:43;;;;;;;14.45;7.35;;;;;;;7.82;100.00;101540.97;5045587;28;20071;-66
2023/04/07 08:02:09;;;;;;;14.50;6.70;;;;;;;7.98;100.00;101539.72;5036866;28;20033;-65
2023/04/07 08:04:35;;;;;;;15.02;6.60;;;;;;;7.91;100.00;101549.94;5038820;28;20067;-65
2023/04/07 08:07:01;;;;;;;15.75;6.18;;;;;;;8.03;100.00;101546.28;5042245;28;20032;-67
2023/04/07 08:09:27;;;;;;;10.32;5.28;;;;;;;7.99;100.00;101547.50;5043941;28;20542;-63
2023/04/07 08:11:52;;;;;;;14.18;5.68;;;;;;;8.03;100.00;101550.72;5043562;28;20043;-65
2023/04/07 08:14:17;;;;;;;15.00;5.70;;;;;;;8.03;100.00;101563.94;5043594;28;20028;-64
2023/04/07 08:16:44;;;;;;;17.33;7.35;;;;;;;8.03;100.00;101558.66;5042356;28;20040;-67
2023/04/07 08:19:10;;;;;;;11.07;5.38;;;;;;;8.10;100.00;101559.84;5044631;28;20025;-66
2023/04/07 08:21:35;;;;;;;10.45;5.00;;;;;;;8.12;100.00;101562.31;5039906;28;20030;-66
2023/04/07 08:24:01;;;;;;;14.75;5.13;;;;;;;8.13;100.00;101564.00;5037597;28;20370;-67
2023/04/07 08:26:26;;;;;;;15.38;5.03;;;;;;;8.15;100.00;101562.91;5042205;28;20079;-66
2023/04/07 08:28:52;;;;;;;11.32;4.85;;;;;;;8.15;100.00;101568.19;5045074;28;20036;-64
2023/04/07 08:31:18;;;;;;;11.02;4.93;;;;;;;8.20;100.00;101568.66;5042578;28;20544;-64
2023/04/07 08:33:43;;;;;;;12.85;5.20;;;;;;;8.15;100.00;101568.19;5044596;28;20087;-67
2023/04/07 08:36:09;;;;;;;13.07;5.55;;;;;;;8.10;100.00;101575.69;5040794;28;20385;-63
2023/04/07 08:38:34;;;;;;;11.48;5.60;;;;;;;8.14;100.00;101577.09;5044485;28;20040;-66
2023/04/07 08:41:06;;;;;;;12.90;5.00;;;;;;;8.07;100.00;101570.63;5044316;28;20041;-67
2023/04/07 08:43:34;;;;;;;12.63;4.72;;;;;;;8.12;100.00;101584.31;5044734;28;20040;-65
2023/04/07 08:46:01;;;;;;;14.63;5.30;;;;;;;8.04;100.00;101578.84;5042440;28;20472;-66
2023/04/07 08:48:32;;;;;;;10.23;4.30;;;;;;;7.97;100.00;101580.28;5044359;28;20037;-67
2023/04/07 08:51:03;;;;;;;13.32;4.90;;;;;;;7.99;100.00;101583.66;5037432;28;20741;-65
2023/04/07 08:53:35;;;;;;;12.02;4.68;;;;;;;7.94;100.00;101589.28;5039639;28;20131;-65
2023/04/07 08:56:01;;;;;;;11.23;4.40;;;;;;;7.98;100.00;101600.47;5041183;28;20408;-66
2023/04/07 08:58:27;;;;;;;12.27;4.72;;;;;;;7.94;100.00;101595.44;5043079;28;20287;-63
2023/04/07 09:00:52;;;;;;;10.70;3.75;;;;;;;8.10;100.00;101601.25;5043075;28;20036;-65
2023/04/07 09:03:18;;;;;;;11.55;4.65;;;;;;;8.10;100.00;101596.81;5044035;28;20098;-64
2023/04/07 09:05:45;;;;;;;9.80;3.65;;;;;;;8.15;100.00;101599.06;5043746;28;20680;-64
2023/04/07 09:08:10;;;;;;;16.25;4.20;;;;;;;8.27;100.00;101607.78;5038700;28;20029;-65
2023/04/07 09:10:36;;;;;;;8.35;3.38;;;;;;;8.33;100.00;101601.97;5039847;28;20039;-62
2023/04/07 09:13:01;;;;;;;12.82;3.60;;;;;;;8.34;100.00;101604.50;5040653;28;20107;-61
2023/04/07 09:15:30;;;;;;;8.93;3.65;;;;;;;8.37;99.07;101613.13;5029707;28;20069;-63
2023/04/07 09:17:57;;;;;;;8.15;3.28;;;;;;;8.38;100.00;101610.38;5042862;28;20931;-64
2023/04/07 09:20:22;;;;;;;8.40;3.20;;;;;;;8.46;98.35;101605.31;5039736;28;20025;-64
2023/04/07 09:22:49;;;;;;;8.98;3.25;;;;;;;8.36;98.84;101607.03;5044337;28;20044;-63
2023/04/07 09:25:18;;;;;;;11.13;3.83;;;;;;;8.33;100.00;101607.25;5044195;28;20377;-64
2023/04/07 09:27:54;;;;;;;12.10;3.30;;;;;;;8.58;99.73;101618.47;5038960;28;20024;-63
2023/04/07 09:30:19;;;;;;;11.15;3.40;;;;;;;8.52;98.74;101611.03;5035725;28;20060;-63
2023/04/07 09:32:45;;;;;;;8.68;3.30;;;;;;;8.47;98.34;101620.19;5035314;28;20029;-63
2023/04/07 09:35:10;;;;;;;14.77;3.58;;;;;;;8.55;98.02;101616.09;5031815;28;20045;-63
2023/04/07 09:37:36;;;;;;;11.68;3.35;;;;;;;8.48;98.79;101611.28;5037132;28;20033;-63
2023/04/07 09:40:02;;;;;;;9.00;3.55;;;;;;;8.57;99.57;101615.00;5037007;28;20043;-63
2023/04/07 09:42:31;;;;;;;11.68;3.90;;;;;;;8.55;100.00;101608.16;5040764;28;20542;-63
2023/04/07 09:44:58;;;;;;;10.32;3.40;;;;;;;8.61;97.31;101615.56;5039506;28;20035;-63
2023/04/07 09:47:28;;;;;;;10.48;3.80;;;;;;;8.70;96.79;101608.66;5039039;28;20109;-63
2023/04/07 09:49:54;;;;;;;8.77;3.60;;;;;;;8.61;97.90;101610.28;5040734;28;20372;-63
2023/04/07 09:52:52;;;;;;;9.82;3.80;;;;;;;8.61;99.04;101610.28;5039680;28;20029;-63
2023/04/07 09:55:21;;;;;;;11.30;4.00;;;;;;;8.66;97.87;101608.09;5041382;28;20110;-63
2023/04/07 09:57:49;;;;;;;10.50;3.45;;;;;;;8.69;97.00;101613.09;5038907;28;20040;-63
2023/04/07 10:00:15;;;;;;;10.10;3.75;;;;;;;8.74;96.19;101610.91;5042209;28;20056;-62
2023/04/07 10:02:41;;;;;;;14.45;4.07;;;;;;;8.77;95.34;101614.28;5042813;28;20484;-63
2023/04/07 10:05:07;;;;;;;14.93;4.50;;;;;;;8.66;95.26;101621.31;5039364;28;20125;-63
2023/04/07 10:07:33;;;;;;;17.20;4.47;;;;;;;8.54;97.69;101625.00;5041159;28;20497;-61
2023/04/07 10:09:59;;;;;;;15.18;4.25;;;;;;;8.61;96.53;101626.16;5040617;28;20044;-62
2023/04/07 10:12:26;;;;;;;15.02;3.90;;;;;;;8.55;95.50;101624.03;5037354;28;20029;-60
2023/04/07 10:14:51;;;;;;;15.52;4.13;;;;;;;8.51;96.84;101625.19;5041015;28;20044;-64
2023/04/07 10:17:19;;;;;;;14.20;4.40;;;;;;;8.51;97.17;101630.50;5037531;28;20025;-62
2023/04/07 10:19:47;;;;;;;15.63;4.53;;;;;;;8.43;96.22;101626.69;5042039;28;20040;-65
2023/04/07 10:22:13;;;;;;;15.77;4.45;;;;;;;8.51;95.54;101635.78;5039183;28;20874;-63
2023/04/07 10:24:50;;;;;;;14.52;4.07;;;;;;;8.45;96.29;101631.84;5040737;28;20047;-63
2023/04/07 10:27:20;;;;;;;12.90;3.70;;;;;;;8.48;95.71;101643.00;5038492;28;20060;-64
2023/04/07 10:29:49;;;;;;;14.07;4.20;;;;;;;8.47;96.04;101630.75;5041593;28;20037;-63
2023/04/07 10:32:14;;;;;;;10.50;3.50;;;;;;;8.52;95.60;101642.75;5042519;28;20024;-63
2023/04/07 10:34:49;;;;;;;11.13;3.53;;;;;;;8.63;96.69;101649.81;5038519;28;20519;-64
2023/04/07 10:37:18;;;;;;;12.82;4.10;;;;;;;8.71;93.35;101653.50;5038969;28;20108;-63
2023/04/07 10:39:44;;;;;;;14.52;3.75;;;;;;;8.74;95.99;101652.41;5042992;28;20535;-63
2023/04/07 10:42:38;;;;;;;10.13;3.63;;;;;;;9.18;92.71;101652.19;5043742;28;20024;-63
2023/04/07 10:45:05;;;;;;;11.48;3.40;;;;;;;8.93;90.33;101659.59;5036963;28;20048;-64
2023/04/07 10:47:31;;;;;;;8.30;3.35;;;;;;;8.87;91.21;101657.47;5043037;28;20029;-64
2023/04/07 10:50:11;;;;;;;12.93;3.40;;;;;;;8.92;92.26;101654.47;5034969;28;20588;-65
2023/04/07 10:52:37;;;;;;;12.35;3.80;;;;;;;8.79;92.08;101654.66;5038477;28;20037;-64
2023/04/07 10:55:27;;;;;;;12.52;3.78;;;;;;;8.81;95.25;101658.00;5040727;28;20036;-65
2023/04/07 10:58:22;;;;;;;15.23;3.88;;;;;;;8.93;93.85;101656.94;5036260;28;20159;-66
2023/04/07 11:01:11;;;;;;;12.65;3.50;;;;;;;8.96;92.66;101659.34;5040076;28;20045;-64
2023/04/07 11:03:38;;;;;;;10.43;3.47;;;;;;;8.87;93.60;101662.75;5040715;28;20082;-64
2023/04/07 11:06:13;;;;;;;8.65;3.15;;;;;;;9.02;92.37;101663.28;5040620;28;20392;-65
2023/04/07 11:08:41;;;;;;;10.32;3.08;;;;;;;8.99;91.77;101653.78;5039913;28;20590;-65
2023/04/07 11:11:10;;;;;;;13.05;3.20;;;;;;;9.08;91.68;101659.28;5036897;28;20041;-64
2023/04/07 11:13:47;;;;;;;9.93;2.92;;;;;;;9.21;89.61;101659.91;5037986;28;20033;-65